Time;durP1;ratioP1;P1;durP2;ratioP2;P2;SDS_P1;SDS_P2;PMS_P1;PMS_P2;Temp;Humidity;BMP_temperature;BMP_pressure;BME280_temperature;BME280_humidity;BME280_pressure;Samples;Min_cycle;Max_cycle;Signal;HPM_P1;HPM_P2
2021/05/24 00:02:24;;;;;;;8.77;4.20;;;12.20;99.90;;;;;;5051727;28;20505;-78
2021/05/24 00:04:55;;;;;;;4.03;3.60;;;12.20;99.90;;;;;;5032929;28;20440;-78
2021/05/24 00:07:23;;;;;;;4.63;3.70;;;12.20;99.90;;;;;;5045777;28;20458;-77
2021/05/24 00:09:51;;;;;;;4.30;3.90;;;12.30;99.90;;;;;;5053397;28;20513;-79
2021/05/24 00:12:25;;;;;;;3.77;3.47;;;12.20;99.90;;;;;;5044430;28;20474;-78
2021/05/24 00:14:55;;;;;;;3.73;3.37;;;12.20;99.90;;;;;;5033760;28;20514;-78
2021/05/24 00:17:27;;;;;;;3.90;3.60;;;12.20;99.90;;;;;;5033488;28;20960;-79
2021/05/24 00:19:55;;;;;;;3.53;3.23;;;12.10;99.90;;;;;;5033789;28;20440;-79
2021/05/24 00:22:26;;;;;;;4.20;3.20;;;12.20;99.90;;;;;;5040180;28;20458;-78
2021/05/24 00:24:57;;;;;;;3.83;3.53;;;12.20;99.90;;;;;;5040205;28;20419;-79
2021/05/24 00:27:23;;;;;;;3.33;3.13;;;12.10;99.90;;;;;;5047703;28;20482;-79
2021/05/24 00:29:51;;;;;;;4.53;4.17;;;12.10;99.90;;;;;;5044365;28;20470;-78
2021/05/24 00:32:17;;;;;;;3.93;3.60;;;12.20;99.90;;;;;;5032063;28;20919;-78
2021/05/24 00:34:43;;;;;;;3.67;3.33;;;12.10;99.90;;;;;;5044313;28;20424;-77
2021/05/24 00:37:22;;;;;;;3.87;3.67;;;12.10;99.90;;;;;;5046897;28;20416;-79
2021/05/24 00:39:48;;;;;;;3.43;3.23;;;12.10;99.90;;;;;;5052269;28;20420;-78
2021/05/24 00:42:14;;;;;;;4.07;3.17;;;12.10;99.90;;;;;;5033727;28;20761;-79
2021/05/24 00:44:45;;;;;;;3.87;3.57;;;12.10;99.90;;;;;;5042299;28;20441;-79
2021/05/24 00:47:13;;;;;;;4.30;3.37;;;12.10;99.90;;;;;;5051815;28;20770;-79
2021/05/24 00:49:44;;;;;;;3.20;3.00;;;12.10;99.90;;;;;;5053070;28;20444;-79
2021/05/24 00:52:16;;;;;;;3.40;3.20;;;12.10;99.90;;;;;;5034749;28;20501;-79
2021/05/24 00:54:42;;;;;;;3.20;2.90;;;12.10;99.90;;;;;;5053990;28;20430;-79
2021/05/24 00:57:13;;;;;;;3.87;3.50;;;12.10;99.90;;;;;;5056087;28;20960;-79
2021/05/24 00:59:44;;;;;;;3.73;3.37;;;12.10;99.90;;;;;;5036419;28;20436;-78
2021/05/24 01:02:15;;;;;;;3.70;3.50;;;12.20;99.90;;;;;;5044568;28;20467;-79
2021/05/24 01:04:41;;;;;;;3.83;3.43;;;12.10;99.90;;;;;;5047810;28;20416;-79
2021/05/24 01:07:12;;;;;;;3.60;3.30;;;12.20;99.90;;;;;;5039170;28;20428;-79
2021/05/24 01:09:47;;;;;;;3.00;2.80;;;12.20;99.90;;;;;;5055762;28;20509;-79
2021/05/24 01:12:18;;;;;;;3.50;3.30;;;12.20;99.90;;;;;;5057341;28;20431;-79
2021/05/24 01:14:44;;;;;;;4.67;3.03;;;12.20;99.90;;;;;;5053181;28;20423;-79
2021/05/24 01:17:13;;;;;;;4.60;3.07;;;12.30;99.90;;;;;;5056391;28;20942;-79
2021/05/24 01:19:47;;;;;;;3.00;2.80;;;12.30;99.90;;;;;;5054304;28;20419;-80
2021/05/24 01:22:21;;;;;;;3.17;2.97;;;12.30;99.90;;;;;;5049868;28;20452;-80
2021/05/24 01:24:55;;;;;;;4.20;3.70;;;12.30;99.90;;;;;;5056225;28;20456;-80
2021/05/24 01:27:23;;;;;;;3.00;2.80;;;12.30;99.90;;;;;;5037240;28;20504;-80
2021/05/24 01:29:51;;;;;;;5.37;2.90;;;12.30;99.90;;;;;;5036875;28;20830;-79
2021/05/24 01:32:17;;;;;;;3.30;3.10;;;12.20;99.90;;;;;;5054151;28;20435;-79
2021/05/24 01:34:46;;;;;;;3.47;3.27;;;12.20;99.90;;;;;;5041326;28;20431;-79
2021/05/24 01:37:19;;;;;;;5.83;3.00;;;12.20;99.90;;;;;;5038199;28;20439;-79
2021/05/24 01:39:50;;;;;;;4.07;2.93;;;12.20;99.90;;;;;;5043921;28;20477;-79
2021/05/24 01:42:16;;;;;;;3.80;3.60;;;12.30;99.90;;;;;;5055693;28;20455;-79
2021/05/24 01:44:44;;;;;;;3.57;3.23;;;12.20;99.90;;;;;;5055088;28;20419;-79
2021/05/24 01:47:15;;;;;;;3.30;3.10;;;12.10;99.90;;;;;;5055033;28;20446;-79
2021/05/24 01:49:47;;;;;;;3.60;2.60;;;12.10;99.90;;;;;;5053454;28;20439;-81
2021/05/24 01:52:17;;;;;;;3.70;3.40;;;12.20;99.90;;;;;;5045408;28;20447;-79
2021/05/24 01:54:44;;;;;;;3.40;3.13;;;12.10;99.90;;;;;;5054842;28;20484;-79
2021/05/24 01:57:10;;;;;;;3.40;3.20;;;12.20;99.90;;;;;;5032500;28;20423;-79
2021/05/24 01:59:37;;;;;;;4.10;3.10;;;12.20;99.90;;;;;;5025331;28;20431;-79
2021/05/24 02:02:07;;;;;;;2.93;2.73;;;12.20;99.90;;;;;;5054623;28;20587;-79
2021/05/24 02:04:38;;;;;;;3.13;2.83;;;12.10;99.90;;;;;;5055822;28;20459;-79
2021/05/24 02:07:06;;;;;;;3.10;2.90;;;12.20;99.90;;;;;;5054567;28;20430;-79
2021/05/24 02:09:37;;;;;;;3.50;2.90;;;12.20;99.90;;;;;;5054662;28;20863;-79
2021/05/24 02:12:05;;;;;;;2.77;2.57;;;12.20;99.90;;;;;;5035139;28;20441;-79
2021/05/24 02:14:31;;;;;;;3.07;2.87;;;12.20;99.90;;;;;;5036235;28;20459;-79
2021/05/24 02:17:00;;;;;;;2.97;2.77;;;12.10;99.90;;;;;;5035632;28;20444;-79
2021/05/24 02:19:28;;;;;;;4.10;3.67;;;12.10;99.90;;;;;;5055295;28;20422;-80
2021/05/24 02:21:53;;;;;;;2.57;2.47;;;12.10;99.90;;;;;;5055894;28;20423;-79
2021/05/24 02:24:22;;;;;;;2.47;2.37;;;12.10;99.90;;;;;;5040533;28;20486;-79
2021/05/24 02:26:50;;;;;;;3.97;3.00;;;12.10;99.90;;;;;;5053813;28;20434;-79
2021/05/24 02:29:18;;;;;;;2.70;2.50;;;12.00;99.90;;;;;;5040316;28;20454;-79
2021/05/24 02:31:49;;;;;;;2.30;2.10;;;12.10;99.90;;;;;;5054901;28;20474;-79
2021/05/24 02:34:19;;;;;;;2.93;2.73;;;12.10;99.90;;;;;;5038480;28;20426;-80
2021/05/24 02:36:50;;;;;;;4.40;2.77;;;12.10;99.90;;;;;;5053161;28;20434;-79
2021/05/24 02:39:18;;;;;;;2.70;2.50;;;12.10;99.90;;;;;;5053941;28;20805;-79
2021/05/24 02:41:44;;;;;;;2.93;2.70;;;12.20;99.90;;;;;;5053993;28;20525;-79
2021/05/24 02:44:11;;;;;;;3.47;2.90;;;12.10;99.90;;;;;;5052222;28;20487;-78
2021/05/24 02:46:38;;;;;;;3.00;2.80;;;12.20;99.90;;;;;;5047891;28;20444;-79
2021/05/24 02:49:04;;;;;;;3.20;3.00;;;12.10;99.90;;;;;;5052019;28;20485;-79
2021/05/24 02:51:30;;;;;;;3.57;2.80;;;12.10;99.90;;;;;;5037224;28;20531;-80
2021/05/24 02:53:59;;;;;;;8.87;3.40;;;12.10;99.90;;;;;;5037111;28;20757;-79
2021/05/24 02:56:26;;;;;;;3.50;2.93;;;12.10;99.90;;;;;;5053429;28;20823;-79
2021/05/24 02:58:54;;;;;;;5.70;2.97;;;12.20;99.90;;;;;;5054151;28;20427;-79
2021/05/24 03:01:26;;;;;;;4.53;3.03;;;12.20;99.90;;;;;;5049138;28;20446;-79
2021/05/24 03:04:02;;;;;;;5.70;2.87;;;12.20;99.90;;;;;;5032186;28;20471;-78
2021/05/24 03:06:34;;;;;;;3.73;2.97;;;12.10;99.90;;;;;;5054830;28;20876;-79
2021/05/24 03:09:06;;;;;;;2.97;2.70;;;12.20;99.90;;;;;;5049535;28;20479;-80
2021/05/24 03:11:34;;;;;;;4.20;2.83;;;12.20;99.90;;;;;;5054978;28;20445;-79
2021/05/24 03:14:00;;;;;;;3.20;2.90;;;12.20;99.90;;;;;;5048959;28;20796;-84
2021/05/24 03:16:28;;;;;;;2.60;2.40;;;12.20;99.90;;;;;;5033452;28;20447;-85
2021/05/24 03:18:57;;;;;;;2.87;2.57;;;12.20;99.90;;;;;;5049068;28;20431;-82
2021/05/24 03:21:23;;;;;;;4.90;2.90;;;12.20;99.90;;;;;;5001344;28;20454;-83
2021/05/24 03:23:51;;;;;;;2.70;2.50;;;12.20;99.90;;;;;;5016837;28;20569;-83
2021/05/24 03:26:19;;;;;;;4.00;3.23;;;12.20;99.90;;;;;;5034308;28;20918;-83
2021/05/24 03:28:47;;;;;;;3.47;3.13;;;12.30;99.90;;;;;;5000832;28;20751;-84
2021/05/24 03:31:14;;;;;;;3.13;2.87;;;12.20;99.90;;;;;;5001535;28;20466;-83
2021/05/24 03:33:40;;;;;;;3.10;2.90;;;12.20;99.90;;;;;;5036942;28;20526;-83
2021/05/24 03:36:07;;;;;;;2.97;2.77;;;12.20;99.90;;;;;;5019041;28;20439;-83
2021/05/24 03:38:36;;;;;;;4.10;3.37;;;12.20;99.90;;;;;;5047663;28;20466;-83
2021/05/24 03:41:05;;;;;;;4.63;2.90;;;12.30;99.90;;;;;;5053624;28;20751;-83
2021/05/24 03:43:35;;;;;;;4.53;2.67;;;12.30;99.90;;;;;;5034815;28;20438;-83
2021/05/24 03:46:01;;;;;;;3.63;3.33;;;12.30;99.90;;;;;;5052099;28;20433;-83
2021/05/24 03:48:29;;;;;;;3.20;3.00;;;12.30;99.90;;;;;;5007195;28;20454;-83
2021/05/24 03:50:57;;;;;;;2.90;2.70;;;12.40;99.90;;;;;;5011138;28;20545;-81
2021/05/24 03:53:23;;;;;;;5.57;2.63;;;12.30;99.90;;;;;;5030247;28;20490;-83
2021/05/24 03:55:51;;;;;;;4.60;3.07;;;12.30;99.90;;;;;;5053079;28;20411;-82
2021/05/24 03:58:17;;;;;;;3.40;3.00;;;12.30;99.90;;;;;;5025057;28;20470;-84
2021/05/24 04:00:43;;;;;;;3.17;2.97;;;12.40;99.90;;;;;;5034772;28;20432;-83
2021/05/24 04:03:10;;;;;;;3.00;2.80;;;12.40;99.90;;;;;;5042784;28;20544;-83
2021/05/24 04:05:40;;;;;;;3.00;2.80;;;12.40;99.90;;;;;;5019839;28;20426;-83
2021/05/24 04:08:07;;;;;;;3.23;3.00;;;12.40;99.90;;;;;;5043331;28;20455;-84
2021/05/24 04:10:40;;;;;;;3.43;2.87;;;12.40;99.90;;;;;;5033760;28;20852;-83
2021/05/24 04:13:06;;;;;;;3.50;2.77;;;12.40;99.90;;;;;;5009894;28;20419;-83
2021/05/24 04:15:32;;;;;;;3.17;2.97;;;12.50;99.90;;;;;;5015107;28;20862;-83
2021/05/24 04:18:01;;;;;;;3.70;3.40;;;12.50;99.90;;;;;;5034193;28;20447;-82
2021/05/24 04:20:27;;;;;;;2.93;2.83;;;12.60;99.90;;;;;;5016457;28;20431;-83
2021/05/24 04:22:55;;;;;;;4.47;3.33;;;12.60;99.90;;;;;;5048621;28;20928;-82
2021/05/24 04:25:24;;;;;;;3.23;3.00;;;12.70;99.90;;;;;;5019577;28;20441;-83
2021/05/24 04:27:50;;;;;;;3.40;3.20;;;12.60;99.90;;;;;;5027896;28;20476;-81
2021/05/24 04:30:17;;;;;;;4.30;3.63;;;12.70;99.90;;;;;;5036955;28;20455;-83
2021/05/24 04:32:43;;;;;;;3.33;3.13;;;12.60;99.90;;;;;;5019455;28;20458;-83
2021/05/24 04:35:11;;;;;;;3.20;3.00;;;12.60;99.90;;;;;;5033069;28;20474;-82
2021/05/24 04:37:37;;;;;;;3.80;3.40;;;12.70;99.90;;;;;;5047354;28;20819;-81
2021/05/24 04:40:07;;;;;;;4.70;3.27;;;12.70;99.90;;;;;;5016327;28;20822;-83
2021/05/24 04:42:32;;;;;;;3.57;3.27;;;12.60;99.90;;;;;;5014114;28;20479;-81
2021/05/24 04:44:58;;;;;;;3.63;3.23;;;12.60;99.90;;;;;;5000013;28;20520;-81
2021/05/24 04:47:24;;;;;;;4.17;3.27;;;12.60;99.90;;;;;;5003789;28;20438;-82
2021/05/24 04:49:53;;;;;;;3.33;3.13;;;12.60;99.90;;;;;;5034235;28;20908;-82
2021/05/24 04:52:19;;;;;;;3.30;3.10;;;12.70;99.90;;;;;;5035020;28;20444;-84
2021/05/24 04:54:48;;;;;;;7.80;3.70;;;12.80;99.90;;;;;;5012832;28;20429;-82
2021/05/24 04:57:15;;;;;;;3.13;2.93;;;12.80;99.90;;;;;;5028063;28;20434;-82
2021/05/24 04:59:41;;;;;;;3.83;3.50;;;12.80;99.90;;;;;;5032580;28;20975;-82
2021/05/24 05:02:09;;;;;;;3.63;3.43;;;12.90;99.90;;;;;;5026691;28;20566;-82
2021/05/24 05:04:35;;;;;;;3.50;3.23;;;12.90;99.90;;;;;;5017809;28;20749;-82
2021/05/24 05:07:02;;;;;;;4.30;3.50;;;13.00;99.90;;;;;;5000158;28;20489;-82
2021/05/24 05:09:28;;;;;;;3.67;3.37;;;13.00;99.90;;;;;;5016531;28;20496;-83
2021/05/24 05:11:55;;;;;;;4.93;3.10;;;13.00;99.90;;;;;;5032329;28;20864;-82
2021/05/24 05:14:25;;;;;;;3.97;3.70;;;13.10;99.90;;;;;;5050095;28;20433;-81
2021/05/24 05:16:51;;;;;;;4.10;3.80;;;13.10;99.90;;;;;;5002036;28;20803;-82
2021/05/24 05:19:20;;;;;;;5.77;3.40;;;13.10;99.90;;;;;;5004446;28;20511;-82
2021/05/24 05:21:50;;;;;;;3.33;3.13;;;13.10;99.90;;;;;;5008666;28;20500;-83
2021/05/24 05:24:18;;;;;;;3.90;3.50;;;13.10;99.90;;;;;;5006665;28;20998;-82
2021/05/24 05:26:44;;;;;;;8.30;3.70;;;13.10;99.90;;;;;;5018044;28;20502;-83
2021/05/24 05:29:12;;;;;;;6.57;3.10;;;13.10;99.90;;;;;;5029950;28;20434;-82
2021/05/24 05:31:38;;;;;;;3.37;3.17;;;13.20;99.90;;;;;;5033755;28;20479;-82
2021/05/24 05:34:05;;;;;;;4.13;3.20;;;13.20;99.90;;;;;;5035279;28;20740;-81
2021/05/24 05:36:32;;;;;;;5.00;3.23;;;13.20;99.90;;;;;;5050748;28;20435;-82
2021/05/24 05:39:00;;;;;;;5.33;3.23;;;13.20;99.90;;;;;;5051330;28;20775;-83
2021/05/24 05:41:25;;;;;;;3.20;3.00;;;13.20;99.90;;;;;;5037426;28;20461;-82
2021/05/24 05:43:51;;;;;;;9.13;3.37;;;13.30;99.90;;;;;;5018771;28;20510;-81
2021/05/24 05:46:22;;;;;;;3.13;2.93;;;13.30;99.90;;;;;;5040872;28;20435;-81
2021/05/24 05:48:48;;;;;;;3.47;3.27;;;13.40;99.90;;;;;;5047171;28;21023;-81
2021/05/24 05:51:14;;;;;;;3.50;3.30;;;13.40;99.90;;;;;;5055209;28;20547;-80
2021/05/24 05:53:40;;;;;;;3.50;3.30;;;13.50;99.90;;;;;;5055929;28;20575;-81
2021/05/24 05:56:08;;;;;;;3.43;3.13;;;13.60;99.90;;;;;;5014329;28;20477;-82
2021/05/24 05:58:37;;;;;;;3.53;3.30;;;13.70;99.90;;;;;;5011755;28;20477;-81
2021/05/24 06:01:05;;;;;;;3.53;3.27;;;13.80;99.90;;;;;;5054683;28;20868;-80
2021/05/24 06:03:32;;;;;;;3.60;3.40;;;13.80;99.90;;;;;;5004034;28;20482;-79
2021/05/24 06:05:59;;;;;;;3.60;3.40;;;13.90;99.90;;;;;;5015234;28;20432;-81
2021/05/24 06:08:28;;;;;;;7.10;3.70;;;13.90;99.90;;;;;;5045652;28;20435;-80
2021/05/24 06:10:57;;;;;;;4.77;3.67;;;14.10;99.90;;;;;;5019360;28;20469;-81
2021/05/24 06:13:25;;;;;;;3.90;3.60;;;14.20;99.90;;;;;;5049780;28;20466;-81
2021/05/24 06:15:51;;;;;;;4.63;3.67;;;14.30;99.90;;;;;;5054887;28;20449;-80
2021/05/24 06:18:19;;;;;;;19.23;4.70;;;14.40;99.90;;;;;;5024483;28;20443;-81
2021/05/24 06:20:46;;;;;;;4.10;3.77;;;14.50;99.90;;;;;;5020834;28;20952;-81
2021/05/24 06:23:16;;;;;;;3.80;3.50;;;14.60;99.90;;;;;;5036241;28;20447;-81
2021/05/24 06:25:44;;;;;;;6.47;4.43;;;14.80;99.90;;;;;;5019017;28;20442;-81
2021/05/24 06:28:10;;;;;;;4.30;4.00;;;14.80;99.90;;;;;;5030277;28;20601;-81
2021/05/24 06:30:37;;;;;;;4.17;3.63;;;14.90;99.90;;;;;;5054950;28;20460;-81
2021/05/24 06:33:06;;;;;;;4.07;3.77;;;15.00;99.70;;;;;;5053693;28;20453;-82
2021/05/24 06:35:34;;;;;;;4.10;3.80;;;15.10;99.90;;;;;;5049677;28;20471;-84
2021/05/24 06:38:03;;;;;;;3.80;3.50;;;15.20;99.80;;;;;;5019363;28;20461;-80
2021/05/24 06:40:31;;;;;;;4.33;3.93;;;15.30;99.90;;;;;;5006749;28;20446;-81
2021/05/24 06:42:56;;;;;;;4.23;3.83;;;15.40;98.30;;;;;;5045320;28;20444;-82
2021/05/24 06:45:25;;;;;;;3.87;3.67;;;15.50;98.20;;;;;;5044797;28;20443;-82
2021/05/24 06:47:51;;;;;;;3.70;3.40;;;15.50;97.50;;;;;;5042490;28;20430;-83
2021/05/24 06:50:17;;;;;;;4.63;4.20;;;15.60;98.30;;;;;;5041160;28;20569;-81
2021/05/24 06:52:43;;;;;;;4.77;4.37;;;15.60;98.30;;;;;;5034324;28;20436;-81
2021/05/24 06:55:11;;;;;;;7.13;4.37;;;15.60;98.70;;;;;;5036551;28;20917;-81
2021/05/24 06:57:41;;;;;;;4.13;3.93;;;15.50;97.70;;;;;;5048540;28;20430;-81
2021/05/24 07:00:11;;;;;;;4.90;4.47;;;15.70;98.20;;;;;;5037453;28;20437;-80
2021/05/24 07:02:42;;;;;;;4.00;3.80;;;15.90;97.00;;;;;;5053062;28;20471;-81
2021/05/24 07:05:14;;;;;;;5.47;4.23;;;16.00;97.00;;;;;;5052652;28;20940;-81
2021/05/24 07:07:41;;;;;;;4.10;3.70;;;16.00;97.50;;;;;;5053554;28;20438;-82
2021/05/24 07:10:10;;;;;;;6.70;4.23;;;16.10;96.50;;;;;;5038422;28;20467;-81
2021/05/24 07:12:39;;;;;;;4.00;3.80;;;16.30;96.90;;;;;;5035134;28;20740;-81
2021/05/24 07:15:10;;;;;;;4.60;4.20;;;16.40;96.30;;;;;;5018922;28;20476;-81
2021/05/24 07:17:36;;;;;;;4.37;3.90;;;16.50;96.40;;;;;;5033943;28;20923;-81
2021/05/24 07:20:04;;;;;;;7.10;3.90;;;16.60;96.00;;;;;;5047173;28;20488;-82
2021/05/24 07:22:32;;;;;;;4.53;4.23;;;16.60;95.90;;;;;;5053998;28;20924;-81
2021/05/24 07:25:04;;;;;;;3.90;3.70;;;16.70;95.10;;;;;;5048966;28;20506;-81
2021/05/24 07:27:32;;;;;;;4.67;4.33;;;16.80;95.50;;;;;;5038725;28;20820;-80
2021/05/24 07:29:58;;;;;;;4.70;4.40;;;16.90;95.50;;;;;;5033493;28;20531;-79
2021/05/24 07:32:26;;;;;;;4.87;4.47;;;17.00;94.80;;;;;;5051670;28;20897;-81
2021/05/24 07:34:58;;;;;;;4.70;4.40;;;16.90;94.00;;;;;;5054470;28;20432;-80
2021/05/24 07:37:26;;;;;;;4.40;4.10;;;16.90;94.10;;;;;;5020064;28;20435;-82
2021/05/24 07:39:52;;;;;;;4.83;4.43;;;17.00;94.70;;;;;;5001372;28;20419;-81
2021/05/24 07:42:18;;;;;;;4.50;4.20;;;17.10;95.10;;;;;;5030002;28;20433;-81
2021/05/24 07:44:44;;;;;;;5.03;4.73;;;17.30;94.50;;;;;;5034769;28;20427;-82
2021/05/24 07:47:10;;;;;;;4.87;4.60;;;17.40;94.60;;;;;;5034560;28;20443;-82
2021/05/24 07:49:36;;;;;;;4.57;4.23;;;17.40;94.50;;;;;;5026717;28;20442;-81
2021/05/24 07:52:03;;;;;;;7.63;5.10;;;17.50;94.70;;;;;;5019442;28;20463;-81
2021/05/24 07:54:31;;;;;;;5.73;5.17;;;17.60;94.60;;;;;;5053923;28;20427;-81
2021/05/24 07:56:59;;;;;;;4.80;4.50;;;17.60;93.80;;;;;;5053056;28;20427;-81
2021/05/24 07:59:25;;;;;;;5.30;4.80;;;17.70;93.30;;;;;;5000968;28;20523;-80
2021/05/24 08:01:53;;;;;;;6.10;5.50;;;17.60;93.00;;;;;;5034052;28;20460;-81
2021/05/24 08:04:19;;;;;;;4.87;4.67;;;17.50;93.00;;;;;;5032365;28;20458;-81
2021/05/24 08:06:45;;;;;;;4.43;4.13;;;17.50;93.10;;;;;;5015314;28;20492;-81
2021/05/24 08:09:14;;;;;;;4.53;4.27;;;17.40;93.00;;;;;;5038824;28;20614;-81
2021/05/24 08:11:42;;;;;;;4.77;4.37;;;17.40;93.50;;;;;;5023353;28;20506;-82
2021/05/24 08:14:14;;;;;;;5.47;5.07;;;17.40;93.30;;;;;;5052941;28;20423;-82
2021/05/24 08:16:47;;;;;;;5.20;4.83;;;17.50;93.30;;;;;;5041235;28;20530;-82
2021/05/24 08:19:17;;;;;;;5.30;4.80;;;17.50;93.20;;;;;;5045618;28;20484;-82
2021/05/24 08:21:47;;;;;;;5.17;4.77;;;17.50;93.80;;;;;;5045354;28;20498;-81
2021/05/24 08:24:13;;;;;;;5.10;4.80;;;17.50;92.20;;;;;;5006849;28;20438;-82
2021/05/24 08:26:40;;;;;;;4.63;4.43;;;17.50;92.70;;;;;;5036676;28;20497;-82
2021/05/24 08:29:06;;;;;;;5.63;5.23;;;17.50;92.60;;;;;;5051011;28;20468;-83
2021/05/24 08:31:34;;;;;;;7.43;5.43;;;17.60;93.30;;;;;;5019060;28;20471;-82
2021/05/24 08:33:59;;;;;;;5.23;4.80;;;17.70;92.90;;;;;;5032052;28;20510;-82
2021/05/24 08:36:25;;;;;;;5.10;4.70;;;17.50;93.00;;;;;;5036366;28;20535;-83
2021/05/24 08:38:56;;;;;;;5.87;4.77;;;17.60;93.00;;;;;;5026684;28;20455;-82
2021/05/24 08:41:26;;;;;;;5.47;5.13;;;17.60;93.80;;;;;;5043136;28;20831;-82
2021/05/24 08:43:53;;;;;;;5.40;5.10;;;17.70;93.00;;;;;;5038881;28;20442;-82
2021/05/24 08:46:19;;;;;;;5.23;4.93;;;17.80;92.80;;;;;;5026610;28;20450;-82
2021/05/24 08:48:45;;;;;;;5.70;5.30;;;17.70;92.60;;;;;;5038692;28;20752;-82
2021/05/24 08:51:11;;;;;;;5.20;4.70;;;17.70;92.50;;;;;;5037966;28;20467;-82
2021/05/24 08:53:38;;;;;;;5.97;5.17;;;17.70;93.60;;;;;;5014162;28;20493;-82
2021/05/24 08:56:06;;;;;;;4.80;4.50;;;17.70;92.60;;;;;;5019197;28;20433;-83
2021/05/24 08:58:32;;;;;;;5.40;5.03;;;17.60;92.40;;;;;;5016346;28;20532;-83
2021/05/24 09:00:59;;;;;;;5.00;4.70;;;17.70;92.50;;;;;;5043342;28;20537;-81
2021/05/24 09:03:32;;;;;;;4.70;4.40;;;17.70;92.00;;;;;;5050534;28;20474;-82
2021/05/24 09:06:07;;;;;;;5.27;4.90;;;17.50;92.40;;;;;;5049068;28;20515;-81
2021/05/24 09:08:34;;;;;;;4.90;4.60;;;17.50;93.20;;;;;;5016397;28;20448;-83
2021/05/24 09:11:00;;;;;;;5.17;4.87;;;17.40;93.10;;;;;;5009048;28;20884;-82
2021/05/24 09:13:29;;;;;;;6.50;5.10;;;17.40;92.70;;;;;;5051836;28;20429;-81
2021/05/24 09:15:55;;;;;;;5.20;4.80;;;17.30;93.00;;;;;;5047354;28;20421;-82
2021/05/24 09:18:24;;;;;;;4.70;4.30;;;17.40;92.50;;;;;;5056588;28;20404;-85
2021/05/24 09:20:51;;;;;;;5.30;4.83;;;17.60;92.20;;;;;;5041104;28;20519;-83
2021/05/24 09:23:24;;;;;;;5.37;4.97;;;17.60;92.00;;;;;;5038100;28;20967;-84
2021/05/24 09:25:58;;;;;;;4.80;4.40;;;17.60;91.70;;;;;;5053943;28;20514;-84
2021/05/24 09:28:39;;;;;;;5.20;4.70;;;17.70;92.20;;;;;;5051274;28;20434;-82
2021/05/24 09:31:15;;;;;;;5.00;4.60;;;17.80;92.00;;;;;;5048204;28;20464;-84
2021/05/24 09:33:45;;;;;;;5.43;5.07;;;17.90;92.10;;;;;;5056122;28;20453;-83
2021/05/24 09:36:12;;;;;;;5.20;4.87;;;18.00;91.50;;;;;;5046759;28;20422;-82
2021/05/24 09:38:47;;;;;;;4.80;4.60;;;17.90;91.50;;;;;;5050242;28;20450;-81
2021/05/24 09:41:17;;;;;;;5.10;4.80;;;17.90;90.70;;;;;;5055586;28;20919;-82
2021/05/24 09:43:48;;;;;;;5.13;4.73;;;17.90;90.60;;;;;;5053344;28;20458;-80
2021/05/24 09:46:23;;;;;;;6.03;5.60;;;17.80;90.70;;;;;;5026539;28;20434;-80
2021/05/24 09:49:10;;;;;;;7.47;5.60;;;17.70;88.80;;;;;;5050518;28;20469;-84
2021/05/24 09:51:38;;;;;;;5.73;5.30;;;17.50;90.40;;;;;;5052916;28;20945;-81
2021/05/24 09:54:10;;;;;;;6.20;5.90;;;17.50;90.50;;;;;;5055492;28;20418;-81
2021/05/24 09:56:38;;;;;;;6.47;5.97;;;17.40;90.90;;;;;;5052316;28;20426;-80
2021/05/24 09:59:09;;;;;;;6.07;5.67;;;17.50;91.80;;;;;;5036654;28;20436;-80
2021/05/24 10:01:42;;;;;;;6.30;5.80;;;17.40;91.80;;;;;;5036476;28;20434;-80
2021/05/24 10:04:12;;;;;;;5.23;4.73;;;17.30;92.90;;;;;;5042400;28;20508;-81
2021/05/24 10:06:40;;;;;;;5.83;5.13;;;17.20;93.50;;;;;;5052857;28;20944;-83
2021/05/24 10:09:08;;;;;;;5.43;5.03;;;17.00;94.50;;;;;;5036141;28;20463;-83
2021/05/24 10:11:35;;;;;;;5.17;4.80;;;16.90;95.60;;;;;;5046191;28;20485;-81
2021/05/24 10:14:05;;;;;;;6.23;5.80;;;16.70;97.00;;;;;;5026469;28;20475;-83
2021/05/24 10:16:33;;;;;;;5.80;5.37;;;16.60;98.60;;;;;;5051591;28;20436;-83
2021/05/24 10:19:02;;;;;;;5.00;4.60;;;16.50;99.90;;;;;;5054071;28;20424;-83
2021/05/24 10:21:30;;;;;;;5.27;4.87;;;16.40;99.90;;;;;;5021291;28;21037;-83
2021/05/24 10:23:59;;;;;;;5.60;5.20;;;16.40;99.90;;;;;;5050899;28;20442;-80
2021/05/24 10:26:28;;;;;;;5.17;4.77;;;16.30;99.90;;;;;;5052164;28;20430;-83
2021/05/24 10:28:55;;;;;;;5.27;4.90;;;16.40;99.90;;;;;;5054700;28;20527;-82
2021/05/24 10:31:31;;;;;;;5.47;5.07;;;16.40;99.90;;;;;;5038904;28;20570;-82
2021/05/24 10:34:17;;;;;;;5.10;4.70;;;16.40;99.90;;;;;;5048957;28;20867;-80
2021/05/24 10:36:45;;;;;;;4.93;4.53;;;16.60;99.90;;;;;;5035517;28;20478;-83
2021/05/24 10:39:19;;;;;;;4.27;3.87;;;16.60;99.90;;;;;;5038567;28;20503;-82
2021/05/24 10:41:57;;;;;;;4.40;4.10;;;16.70;99.90;;;;;;5043718;28;20426;-83
2021/05/24 10:44:24;;;;;;;4.37;4.03;;;16.70;99.90;;;;;;5041583;28;20437;-82
2021/05/24 10:46:52;;;;;;;4.33;4.03;;;16.70;99.90;;;;;;5029433;28;20552;-82
2021/05/24 10:49:27;;;;;;;4.47;4.00;;;16.70;99.90;;;;;;5049286;28;20935;-81
2021/05/24 10:52:04;;;;;;;6.20;4.40;;;16.70;99.90;;;;;;5053642;28;20461;-82
2021/05/24 10:54:42;;;;;;;4.90;4.50;;;16.80;99.90;;;;;;5042854;28;20814;-82
2021/05/24 10:57:14;;;;;;;5.27;4.50;;;16.80;99.90;;;;;;5043864;28;20759;-82
2021/05/24 10:59:43;;;;;;;4.60;4.10;;;16.80;99.90;;;;;;5055107;28;20419;-82
2021/05/24 11:02:26;;;;;;;4.70;4.30;;;16.70;99.90;;;;;;5041720;28;20475;-83
2021/05/24 11:05:00;;;;;;;5.27;4.87;;;16.70;99.90;;;;;;5038168;28;20429;-82
2021/05/24 11:07:36;;;;;;;5.40;4.50;;;16.80;99.90;;;;;;5053354;28;20431;-82
2021/05/24 11:10:17;;;;;;;5.23;4.73;;;16.80;99.90;;;;;;5053378;28;20421;-83
2021/05/24 11:12:52;;;;;;;5.63;5.00;;;16.90;99.90;;;;;;5054561;28;20556;-83
2021/05/24 11:15:38;;;;;;;4.70;4.30;;;16.70;99.90;;;;;;5055070;28;20941;-82
2021/05/24 11:18:06;;;;;;;5.00;4.63;;;16.70;99.90;;;;;;5054338;28;20431;-82
2021/05/24 11:20:51;;;;;;;7.63;3.87;;;16.70;99.90;;;;;;5051066;28;20516;-82
2021/05/24 11:24:02;;;;;;;4.53;4.23;;;16.40;99.90;;;;;;5017981;28;20446;-82
2021/05/24 11:26:33;;;;;;;4.23;3.93;;;16.40;99.90;;;;;;5046516;28;20438;-82
2021/05/24 11:29:18;;;;;;;4.03;3.77;;;16.30;99.90;;;;;;5045028;28;20434;-82
2021/05/24 11:31:48;;;;;;;4.27;4.00;;;16.20;99.90;;;;;;5038708;28;20470;-81
2021/05/24 11:34:34;;;;;;;4.57;4.17;;;15.90;99.90;;;;;;5047005;28;20499;-82
2021/05/24 11:37:10;;;;;;;4.50;4.10;;;15.80;99.90;;;;;;5047300;28;20516;-83
2021/05/24 11:39:40;;;;;;;3.67;3.47;;;15.50;99.90;;;;;;5051594;28;20413;-81
2021/05/24 11:42:19;;;;;;;3.50;3.20;;;15.40;99.90;;;;;;5051562;28;20449;-82
2021/05/24 11:44:47;;;;;;;3.23;3.03;;;15.00;99.90;;;;;;5044569;28;20733;-82
2021/05/24 11:47:17;;;;;;;2.70;2.50;;;14.80;99.90;;;;;;5043972;28;20514;-82
2021/05/24 11:49:59;;;;;;;2.90;2.70;;;14.60;99.90;;;;;;5051285;28;20451;-81
2021/05/24 11:52:38;;;;;;;3.60;2.43;;;14.30;99.90;;;;;;5056483;28;20421;-81
2021/05/24 11:55:11;;;;;;;4.37;2.23;;;14.10;99.90;;;;;;5044596;28;20482;-81
2021/05/24 11:57:42;;;;;;;2.20;2.10;;;14.00;99.90;;;;;;5052160;28;20427;-82
2021/05/24 12:00:11;;;;;;;2.83;2.20;;;13.80;99.90;;;;;;5045933;28;20445;-80
2021/05/24 12:02:43;;;;;;;3.00;2.20;;;13.70;99.90;;;;;;5051267;28;20473;-80
2021/05/24 12:05:10;;;;;;;5.10;2.43;;;13.60;99.90;;;;;;5049854;28;20513;-80
2021/05/24 12:07:37;;;;;;;5.63;1.80;;;13.60;99.90;;;;;;5048695;28;20489;-80
2021/05/24 12:10:07;;;;;;;2.67;2.30;;;13.50;99.90;;;;;;5051441;28;20919;-80
2021/05/24 12:12:38;;;;;;;3.03;2.73;;;13.50;99.90;;;;;;5052732;28;21370;-80
2021/05/24 12:15:06;;;;;;;4.90;2.60;;;13.50;99.90;;;;;;5047329;28;20427;-79
2021/05/24 12:17:34;;;;;;;2.93;2.00;;;13.50;99.90;;;;;;5050435;28;20469;-79
2021/05/24 12:20:09;;;;;;;5.00;1.70;;;13.50;99.90;;;;;;5050929;28;20529;-79
2021/05/24 12:22:41;;;;;;;2.30;1.67;;;13.50;99.90;;;;;;5050858;28;20484;-79
2021/05/24 12:25:09;;;;;;;1.93;1.50;;;13.70;99.90;;;;;;5047728;28;20430;-80
2021/05/24 12:27:37;;;;;;;2.33;1.50;;;13.70;99.90;;;;;;5053395;28;20434;-80
2021/05/24 12:30:23;;;;;;;3.83;1.33;;;13.70;99.90;;;;;;5048294;28;20461;-81
2021/05/24 12:33:02;;;;;;;2.00;1.80;;;13.80;99.90;;;;;;5051703;28;20437;-80
2021/05/24 12:35:32;;;;;;;1.70;1.60;;;13.90;99.90;;;;;;5048726;28;20435;-81
2021/05/24 12:38:33;;;;;;;2.90;1.60;;;13.90;99.90;;;;;;5050575;28;20423;-81
2021/05/24 12:41:03;;;;;;;3.00;1.50;;;14.00;99.90;;;;;;5051866;28;20464;-80
2021/05/24 12:43:32;;;;;;;3.80;1.87;;;14.20;99.90;;;;;;5051348;28;20922;-81
2021/05/24 12:46:01;;;;;;;2.53;1.47;;;14.20;99.90;;;;;;5052023;28;20439;-80
2021/05/24 12:48:30;;;;;;;5.90;1.57;;;14.40;99.90;;;;;;5049412;28;20438;-81
2021/05/24 12:50:58;;;;;;;2.17;1.80;;;14.50;99.90;;;;;;5053151;28;20473;-80
2021/05/24 12:53:26;;;;;;;2.47;1.77;;;14.60;99.90;;;;;;5055438;28;20761;-81
2021/05/24 12:55:56;;;;;;;1.87;1.67;;;14.70;99.90;;;;;;5053985;28;20463;-81
2021/05/24 12:58:23;;;;;;;2.47;2.10;;;14.90;99.90;;;;;;5049453;28;20494;-81
2021/05/24 13:00:54;;;;;;;4.80;1.50;;;15.00;99.90;;;;;;5051907;28;20445;-81